sensor_id;sensor_type;location;lat;lon;timestamp;pressure;altitude;pressure_sealevel;temperature;humidity
12073;BME280;6098;49.004;8.372;2023-11-21T00:07:59;99778.64;;;11.00;97.21
12073;BME280;6098;49.004;8.372;2023-11-21T00:22:51;99773.52;;;11.05;95.72
12073;BME280;6098;49.004;8.372;2023-11-21T00:37:44;99763.70;;;11.07;95.10
12073;BME280;6098;49.004;8.372;2023-11-21T00:52:36;99765.26;;;11.11;94.35
12073;BME280;6098;49.004;8.372;2023-11-21T01:07:29;99778.30;;;11.16;94.24
12073;BME280;6098;49.004;8.372;2023-11-21T01:22:20;99777.78;;;11.17;93.83
12073;BME280;6098;49.004;8.372;2023-11-21T01:37:12;99782.58;;;11.10;96.34
12073;BME280;6098;49.004;8.372;2023-11-21T01:52:04;99787.16;;;10.89;99.29
12073;BME280;6098;49.004;8.372;2023-11-21T02:06:57;99794.11;;;10.82;100.00
12073;BME280;6098;49.004;8.372;2023-11-21T02:21:49;99782.63;;;10.73;100.00
12073;BME280;6098;49.004;8.372;2023-11-21T02:36:40;99776.81;;;10.66;100.00
12073;BME280;6098;49.004;8.372;2023-11-21T02:51:32;99779.94;;;10.56;100.00
12073;BME280;6098;49.004;8.372;2023-11-21T03:06:24;99770.22;;;10.47;100.00
12073;BME280;6098;49.004;8.372;2023-11-21T03:21:16;99771.92;;;10.48;100.00
12073;BME280;6098;49.004;8.372;2023-11-21T03:36:08;99789.28;;;10.46;100.00
12073;BME280;6098;49.004;8.372;2023-11-21T03:51:01;99787.44;;;10.47;100.00
12073;BME280;6098;49.004;8.372;2023-11-21T04:05:54;99783.84;;;10.47;100.00
12073;BME280;6098;49.004;8.372;2023-11-21T04:20:48;99802.09;;;10.46;100.00
12073;BME280;6098;49.004;8.372;2023-11-21T04:35:39;99815.59;;;10.50;100.00
12073;BME280;6098;49.004;8.372;2023-11-21T04:50:31;99819.08;;;10.50;100.00
12073;BME280;6098;49.004;8.372;2023-11-21T05:05:23;99833.35;;;10.48;100.00
12073;BME280;6098;49.004;8.372;2023-11-21T05:20:15;99835.39;;;10.51;100.00
12073;BME280;6098;49.004;8.372;2023-11-21T05:35:07;99845.45;;;10.44;100.00
12073;BME280;6098;49.004;8.372;2023-11-21T05:49:59;99869.50;;;10.39;100.00
12073;BME280;6098;49.004;8.372;2023-11-21T06:04:53;99883.52;;;10.42;100.00
12073;BME280;6098;49.004;8.372;2023-11-21T06:19:45;99890.78;;;10.47;100.00
12073;BME280;6098;49.004;8.372;2023-11-21T06:34:38;99900.31;;;10.79;100.00
12073;BME280;6098;49.004;8.372;2023-11-21T06:49:28;99911.89;;;10.59;100.00
12073;BME280;6098;49.004;8.372;2023-11-21T07:04:21;99930.61;;;10.55;100.00
12073;BME280;6098;49.004;8.372;2023-11-21T07:19:14;99957.98;;;10.55;100.00
12073;BME280;6098;49.004;8.372;2023-11-21T07:34:05;99992.89;;;10.45;100.00
12073;BME280;6098;49.004;8.372;2023-11-21T07:48:56;100005.88;;;10.51;100.00
12073;BME280;6098;49.004;8.372;2023-11-21T08:03:48;100010.81;;;10.49;100.00
12073;BME280;6098;49.004;8.372;2023-11-21T08:18:41;100026.54;;;10.43;100.00
12073;BME280;6098;49.004;8.372;2023-11-21T08:33:33;100045.46;;;10.65;100.00
12073;BME280;6098;49.004;8.372;2023-11-21T08:48:25;100067.96;;;10.75;100.00
12073;BME280;6098;49.004;8.372;2023-11-21T09:03:16;100075.65;;;10.71;100.00
12073;BME280;6098;49.004;8.372;2023-11-21T09:18:09;100078.47;;;10.77;100.00
12073;BME280;6098;49.004;8.372;2023-11-21T09:33:01;100094.56;;;10.83;100.00
12073;BME280;6098;49.004;8.372;2023-11-21T09:47:53;100119.66;;;10.85;100.00
12073;BME280;6098;49.004;8.372;2023-11-21T10:02:45;100135.16;;;10.94;100.00
12073;BME280;6098;49.004;8.372;2023-11-21T10:17:36;100133.57;;;10.90;100.00
12073;BME280;6098;49.004;8.372;2023-11-21T10:32:29;100134.17;;;10.86;100.00
12073;BME280;6098;49.004;8.372;2023-11-21T10:47:20;100148.20;;;10.79;100.00
12073;BME280;6098;49.004;8.372;2023-11-21T11:02:25;100160.84;;;10.73;100.00
12073;BME280;6098;49.004;8.372;2023-11-21T11:17:19;100160.91;;;10.82;100.00
12073;BME280;6098;49.004;8.372;2023-11-21T11:47:31;100174.98;;;10.83;100.00
12073;BME280;6098;49.004;8.372;2023-11-21T12:02:24;100175.40;;;10.93;100.00
12073;BME280;6098;49.004;8.372;2023-11-21T12:17:21;100175.81;;;10.94;100.00
12073;BME280;6098;49.004;8.372;2023-11-21T12:32:11;100189.09;;;10.94;100.00
12073;BME280;6098;49.004;8.372;2023-11-21T12:47:03;100198.91;;;11.02;100.00
12073;BME280;6098;49.004;8.372;2023-11-21T13:01:54;100209.03;;;11.13;100.00
12073;BME280;6098;49.004;8.372;2023-11-21T13:16:46;100216.86;;;11.25;98.93
12073;BME280;6098;49.004;8.372;2023-11-21T13:31:38;100229.70;;;11.35;98.32
12073;BME280;6098;49.004;8.372;2023-11-21T13:46:31;100238.84;;;11.58;95.55
12073;BME280;6098;49.004;8.372;2023-11-21T14:01:24;100241.33;;;11.52;95.73
12073;BME280;6098;49.004;8.372;2023-11-21T14:16:15;100267.00;;;11.51;94.33
12073;BME280;6098;49.004;8.372;2023-11-21T14:31:06;100290.09;;;11.60;94.95
12073;BME280;6098;49.004;8.372;2023-11-21T14:45:58;100313.50;;;11.72;92.77
12073;BME280;6098;49.004;8.372;2023-11-21T15:00:51;100321.22;;;11.67;90.49
12073;BME280;6098;49.004;8.372;2023-11-21T15:15:42;100343.16;;;11.71;90.49
12073;BME280;6098;49.004;8.372;2023-11-21T15:30:33;100349.72;;;11.63;88.09
12073;BME280;6098;49.004;8.372;2023-11-21T15:45:29;100357.32;;;11.61;86.59
12073;BME280;6098;49.004;8.372;2023-11-21T16:00:18;100362.70;;;11.48;85.54
12073;BME280;6098;49.004;8.372;2023-11-21T16:15:11;100377.97;;;11.43;86.39
12073;BME280;6098;49.004;8.372;2023-11-21T16:30:06;100410.77;;;11.31;86.69
12073;BME280;6098;49.004;8.372;2023-11-21T16:45:01;100437.63;;;11.13;86.86
12073;BME280;6098;49.004;8.372;2023-11-21T16:59:52;100462.09;;;11.20;87.09
12073;BME280;6098;49.004;8.372;2023-11-21T17:14:45;100477.20;;;11.07;86.83
12073;BME280;6098;49.004;8.372;2023-11-21T17:29:36;100492.36;;;11.04;87.40
12073;BME280;6098;49.004;8.372;2023-11-21T17:44:27;100517.78;;;11.10;87.19
12073;BME280;6098;49.004;8.372;2023-11-21T17:59:18;100534.66;;;11.08;87.24
12073;BME280;6098;49.004;8.372;2023-11-21T18:14:10;100547.92;;;11.08;87.16
12073;BME280;6098;49.004;8.372;2023-11-21T18:29:01;100560.11;;;11.12;87.75
12073;BME280;6098;49.004;8.372;2023-11-21T18:43:53;100589.05;;;11.07;87.67
12073;BME280;6098;49.004;8.372;2023-11-21T18:58:44;100605.23;;;10.64;90.22
12073;BME280;6098;49.004;8.372;2023-11-21T19:13:35;100636.22;;;10.63;87.27
12073;BME280;6098;49.004;8.372;2023-11-21T19:28:28;100654.04;;;10.58;88.87
12073;BME280;6098;49.004;8.372;2023-11-21T19:43:18;100666.73;;;10.49;91.78
12073;BME280;6098;49.004;8.372;2023-11-21T19:58:10;100684.96;;;10.58;92.75
12073;BME280;6098;49.004;8.372;2023-11-21T20:13:01;100707.80;;;10.62;96.43
12073;BME280;6098;49.004;8.372;2023-11-21T20:27:55;100718.47;;;10.73;95.94
12073;BME280;6098;49.004;8.372;2023-11-21T20:42:49;100733.81;;;10.77;94.31
12073;BME280;6098;49.004;8.372;2023-11-21T20:57:42;100739.48;;;10.67;95.89
12073;BME280;6098;49.004;8.372;2023-11-21T21:12:34;100731.34;;;10.59;96.92
12073;BME280;6098;49.004;8.372;2023-11-21T21:27:42;100745.05;;;10.45;97.46
12073;BME280;6098;49.004;8.372;2023-11-21T21:42:34;100739.92;;;10.53;97.13
12073;BME280;6098;49.004;8.372;2023-11-21T21:57:25;100738.09;;;10.55;97.17
12073;BME280;6098;49.004;8.372;2023-11-21T22:12:20;100741.13;;;10.57;96.65
12073;BME280;6098;49.004;8.372;2023-11-21T22:27:27;100763.72;;;10.55;97.11
12073;BME280;6098;49.004;8.372;2023-11-21T22:42:18;100775.64;;;10.55;97.41
12073;BME280;6098;49.004;8.372;2023-11-21T22:57:09;100784.02;;;10.42;96.46
12073;BME280;6098;49.004;8.372;2023-11-21T23:11:59;100812.31;;;9.67;90.43
12073;BME280;6098;49.004;8.372;2023-11-21T23:26:50;100835.52;;;9.57;91.01
12073;BME280;6098;49.004;8.372;2023-11-21T23:41:40;100854.47;;;9.25;91.72
12073;BME280;6098;49.004;8.372;2023-11-21T23:56:32;100852.06;;;9.16;89.79
